Weather at Spring Point Airport

Public forecast

Using degrees Celsius for public forecast. Weather courtesy of forecast.io.

Closest aviation weather report (METAR) to Spring Point Airport

Report is more than 2 hours old.

Closest report is Providenciales Airport, 103.0 nm (190.7 km) ESE. Retrieved 2021/06/20 00:00 UTC (3 hours ago):

MBPV 200000Z 09010KT 9999 SCT012 28/22 Q1018

Closest aviation forecast (TAF) to Spring Point Airport

Closest forecast is Providenciales Airport, 103.0 nm (190.7 km) ESE. Retrieved 2021-06-20 00:21 UTC (3 hours ago):

TAF MBPV 192200Z 2000/2024 10015KT 9999 FEW018 SCT040 BKN250